Time;durP1;ratioP1;P1;durP2;ratioP2;P2;SDS_P1;SDS_P2;PMS_P1;PMS_P2;Temp;Humidity;BMP_temperature;BMP_pressure;BME280_temperature;BME280_humidity;BME280_pressure;Samples;Min_cycle;Max_cycle;Signal;HPM_P1;HPM_P2
2024/01/30 00:00:26;;;;;;;12.90;10.30;;;;;;;6.24;100.00;102517.59;1047043;28;20697;-46
2024/01/30 00:00:58;;;;;;;13.60;11.48;;;;;;;6.23;100.00;102521.22;1046748;28;20290;-48
2024/01/30 00:01:29;;;;;;;15.32;10.25;;;;;;;6.17;100.00;102519.16;1046489;28;20302;-45
2024/01/30 00:02:01;;;;;;;15.68;10.55;;;;;;;6.18;100.00;102520.84;1046500;28;20968;-46
2024/01/30 00:02:33;;;;;;;12.98;10.77;;;;;;;6.17;100.00;102516.53;1046655;28;20303;-48
2024/01/30 00:03:05;;;;;;;15.15;11.68;;;;;;;6.20;100.00;102511.78;1047287;28;20451;-47
2024/01/30 00:03:37;;;;;;;14.93;10.13;;;;;;;6.17;100.00;102519.16;1047135;28;20344;-47
2024/01/30 00:04:08;;;;;;;12.68;9.63;;;;;;;6.13;100.00;102517.81;1046582;28;20301;-48
2024/01/30 00:04:40;;;;;;;12.98;11.13;;;;;;;6.20;100.00;102511.78;1046682;28;20307;-46
2024/01/30 00:05:12;;;;;;;11.27;9.95;;;;;;;6.15;100.00;102515.84;1042401;28;20711;-48
2024/01/30 00:05:43;;;;;;;11.93;10.45;;;;;;;6.12;100.00;102511.69;1042093;28;20299;-47
2024/01/30 00:06:18;;;;;;;14.75;11.45;;;;;;;6.16;100.00;102513.03;1042212;28;20299;-47
2024/01/30 00:06:51;;;;;;;14.23;9.60;;;;;;;6.16;100.00;102517.50;1043433;28;20383;-50
2024/01/30 00:07:22;;;;;;;16.35;10.75;;;;;;;6.12;100.00;102516.13;1046815;28;20327;-48
2024/01/30 00:07:54;;;;;;;13.70;11.32;;;;;;;6.16;100.00;102514.84;1046571;28;20344;-48
2024/01/30 00:08:26;;;;;;;14.60;9.90;;;;;;;6.20;100.00;102508.28;1046725;28;20309;-48
2024/01/30 00:08:58;;;;;;;13.20;10.23;;;;;;;6.25;100.00;102508.69;1046649;28;20397;-50
2024/01/30 00:09:30;;;;;;;14.60;11.25;;;;;;;6.28;100.00;102511.03;1046723;28;20306;-51
2024/01/30 00:10:02;;;;;;;13.65;10.75;;;;;;;6.29;100.00;102507.41;1046694;28;20301;-49
2024/01/30 00:10:33;;;;;;;13.25;10.88;;;;;;;6.29;100.00;102507.41;1046791;28;20432;-50
2024/01/30 00:11:05;;;;;;;14.73;9.82;;;;;;;6.38;100.00;102506.53;1046575;28;20291;-48
2024/01/30 00:11:37;;;;;;;11.98;9.38;;;;;;;6.32;100.00;102501.84;1042657;28;20713;-48
2024/01/30 00:12:09;;;;;;;12.88;10.35;;;;;;;6.28;100.00;102504.91;1042416;28;20374;-46
2024/01/30 00:12:40;;;;;;;14.27;11.23;;;;;;;6.24;100.00;102500.88;1041601;28;20392;-47
2024/01/30 00:13:13;;;;;;;12.95;10.25;;;;;;;6.25;100.00;102494.63;1038785;28;20353;-47
2024/01/30 00:13:45;;;;;;;12.55;10.05;;;;;;;6.26;100.00;102502.41;1042529;28;20303;-46
2024/01/30 00:14:17;;;;;;;11.80;9.85;;;;;;;6.23;100.00;102500.06;1042333;28;20296;-45
2024/01/30 00:14:49;;;;;;;14.07;11.13;;;;;;;6.29;100.00;102502.09;1043177;28;20425;-47
2024/01/30 00:15:25;;;;;;;14.30;10.70;;;;;;;6.35;100.00;102503.34;1047061;28;20676;-48
2024/01/30 00:15:56;;;;;;;13.38;11.07;;;;;;;6.37;100.00;102489.00;1046956;28;20746;-46
2024/01/30 00:16:28;;;;;;;15.73;10.40;;;;;;;6.41;100.00;102497.47;1047376;28;20298;-46
2024/01/30 00:17:00;;;;;;;14.13;9.82;;;;;;;6.46;100.00;102508.44;1045258;28;20374;-48
2024/01/30 00:17:31;;;;;;;11.45;10.02;;;;;;;6.44;100.00;102500.66;1047168;28;20377;-46
2024/01/30 00:18:03;;;;;;;11.32;9.90;;;;;;;6.43;100.00;102498.16;1047019;28;20815;-48
2024/01/30 00:18:35;;;;;;;13.95;10.45;;;;;;;6.41;100.00;102493.00;1042230;28;20657;-45
2024/01/30 00:19:08;;;;;;;14.32;10.18;;;;;;;6.39;100.00;102487.03;1042712;28;20576;-48
2024/01/30 00:19:40;;;;;;;12.55;10.15;;;;;;;6.35;100.00;102493.59;1042505;28;20684;-46
2024/01/30 00:20:12;;;;;;;13.73;9.77;;;;;;;6.31;100.00;102488.75;1043911;28;20678;-48
2024/01/30 00:20:43;;;;;;;17.73;10.48;;;;;;;6.23;100.00;102497.41;1047481;28;20302;-47
2024/01/30 00:21:15;;;;;;;11.10;9.73;;;;;;;6.36;100.00;102489.16;1047030;28;20359;-47
2024/01/30 00:21:47;;;;;;;11.15;9.50;;;;;;;6.31;100.00;102500.19;1046927;28;20420;-46
2024/01/30 00:22:19;;;;;;;11.20;9.63;;;;;;;6.28;100.00;102495.16;1047176;28;20339;-49
2024/01/30 00:22:50;;;;;;;12.45;9.88;;;;;;;6.28;100.00;102502.25;1046868;28;20642;-48
2024/01/30 00:23:22;;;;;;;11.23;9.77;;;;;;;6.32;100.00;102495.72;1046980;28;20657;-46
2024/01/30 00:23:54;;;;;;;13.48;9.90;;;;;;;6.27;100.00;102490.00;1042705;28;20334;-45
2024/01/30 00:24:26;;;;;;;13.48;11.32;;;;;;;6.27;100.00;102498.78;1041248;28;20806;-45
2024/01/30 00:24:57;;;;;;;14.98;10.48;;;;;;;6.24;100.00;102493.78;1043512;28;20294;-46
2024/01/30 00:25:29;;;;;;;13.38;10.68;;;;;;;6.21;100.00;102494.09;1044061;28;20306;-46
2024/01/30 00:26:01;;;;;;;12.63;10.48;;;;;;;6.22;100.00;102495.75;1047661;28;20310;-45
2024/01/30 00:26:33;;;;;;;15.57;9.98;;;;;;;6.21;100.00;102494.09;1047260;28;20893;-46
2024/01/30 00:27:04;;;;;;;11.30;9.98;;;;;;;6.16;100.00;102497.16;1048098;28;20778;-46
2024/01/30 00:27:36;;;;;;;13.13;9.82;;;;;;;6.22;100.00;102494.91;1048316;28;20325;-50
2024/01/30 00:28:08;;;;;;;12.60;9.90;;;;;;;6.15;100.00;102499.97;1045764;28;20299;-47
2024/01/30 00:28:41;;;;;;;13.75;10.48;;;;;;;6.15;100.00;102495.50;1047778;28;20294;-47
2024/01/30 00:29:19;;;;;;;14.02;10.50;;;;;;;6.06;100.00;102498.22;1043338;28;20776;-47
2024/01/30 00:29:50;;;;;;;12.00;10.77;;;;;;;6.09;100.00;102500.56;1041686;28;20442;-47
2024/01/30 00:30:22;;;;;;;14.15;9.90;;;;;;;6.12;100.00;102505.56;1043551;28;20370;-46
2024/01/30 00:30:54;;;;;;;11.95;10.05;;;;;;;6.16;100.00;102497.16;1044874;28;20917;-47
2024/01/30 00:31:26;;;;;;;11.95;9.18;;;;;;;6.06;100.00;102499.03;1047670;28;20810;-47
2024/01/30 00:31:57;;;;;;;13.25;9.50;;;;;;;6.08;100.00;102498.88;1048055;28;20295;-47
2024/01/30 00:32:29;;;;;;;14.60;9.75;;;;;;;6.05;100.00;102499.19;1047951;28;20302;-48
2024/01/30 00:33:01;;;;;;;12.80;9.90;;;;;;;6.12;100.00;102500.25;1043777;28;20378;-46
2024/01/30 00:33:33;;;;;;;12.57;10.32;;;;;;;6.10;100.00;102496.94;1043831;28;20772;-47
2024/01/30 00:34:04;;;;;;;15.73;11.25;;;;;;;6.10;100.00;102503.06;1043560;28;20638;-46
2024/01/30 00:34:36;;;;;;;16.15;9.18;;;;;;;6.12;100.00;102494.97;1043610;28;20303;-46
2024/01/30 00:35:10;;;;;;;12.65;10.18;;;;;;;6.16;100.00;102496.34;1047867;28;20309;-46
2024/01/30 00:35:42;;;;;;;13.60;9.98;;;;;;;6.16;100.00;102498.97;1047339;28;20287;-47
2024/01/30 00:36:14;;;;;;;12.52;10.73;;;;;;;6.12;100.00;102495.81;1043609;28;20543;-45
2024/01/30 00:36:46;;;;;;;12.95;9.25;;;;;;;6.09;100.00;102505.84;1043379;28;20295;-48
2024/01/30 00:37:17;;;;;;;13.35;10.50;;;;;;;6.10;100.00;102500.41;1043780;28;20295;-47
2024/01/30 00:37:49;;;;;;;12.73;10.52;;;;;;;6.04;100.00;102498.34;1044369;28;20303;-49
2024/01/30 00:38:21;;;;;;;12.20;9.95;;;;;;;6.09;100.00;102505.84;1047635;28;20435;-48
2024/01/30 00:38:53;;;;;;;12.13;9.95;;;;;;;6.06;100.00;102495.56;1047770;28;20661;-49
2024/01/30 00:39:25;;;;;;;11.57;10.05;;;;;;;6.09;100.00;102505.84;1047896;28;20305;-48
2024/01/30 00:39:56;;;;;;;13.93;9.95;;;;;;;6.03;100.00;102498.50;1047506;28;20286;-48
2024/01/30 00:40:28;;;;;;;17.13;10.85;;;;;;;6.08;100.00;102497.06;1047646;28;20311;-47
2024/01/30 00:41:01;;;;;;;13.70;9.85;;;;;;;6.08;100.00;102498.88;1048050;28;20664;-49
2024/01/30 00:41:33;;;;;;;11.25;9.27;;;;;;;6.06;100.00;102500.84;1048143;28;20299;-47
2024/01/30 00:42:05;;;;;;;11.95;9.98;;;;;;;5.96;100.00;102505.31;1045953;28;20729;-50
2024/01/30 00:42:39;;;;;;;11.15;9.25;;;;;;;5.95;100.00;102503.66;1048194;28;20302;-47
2024/01/30 00:43:11;;;;;;;11.00;9.60;;;;;;;6.00;100.00;102507.53;1047656;28;20673;-49
2024/01/30 00:43:42;;;;;;;16.23;9.90;;;;;;;5.94;100.00;102504.63;1047689;28;20298;-48
2024/01/30 00:44:14;;;;;;;13.80;10.52;;;;;;;5.99;100.00;102499.75;1047357;28;20298;-49
2024/01/30 00:44:46;;;;;;;11.73;9.40;;;;;;;6.01;100.00;102503.06;1047766;28;20400;-48
2024/01/30 00:45:18;;;;;;;12.05;10.63;;;;;;;6.02;100.00;102499.44;1047969;28;20336;-47
2024/01/30 00:45:50;;;;;;;11.38;10.07;;;;;;;6.01;100.00;102503.91;1048286;28;20389;-48
2024/01/30 00:46:22;;;;;;;12.98;9.85;;;;;;;5.92;100.00;102502.13;1046105;28;20325;-48
2024/01/30 00:46:54;;;;;;;13.88;9.45;;;;;;;5.98;100.00;102501.56;1047594;28;20302;-48
2024/01/30 00:47:25;;;;;;;14.98;9.65;;;;;;;6.07;100.00;102507.81;1047971;28;20298;-47
2024/01/30 00:47:57;;;;;;;12.20;9.77;;;;;;;6.02;100.00;102499.44;1047804;28;20341;-48
2024/01/30 00:48:29;;;;;;;18.90;10.27;;;;;;;5.95;100.00;102501.00;1047437;28;20302;-48
2024/01/30 00:49:00;;;;;;;16.63;10.25;;;;;;;5.91;100.00;102502.28;1047771;28;20290;-48
2024/01/30 00:49:33;;;;;;;10.50;9.40;;;;;;;5.82;100.00;102499.50;1048368;28;20453;-48
2024/01/30 00:50:05;;;;;;;12.68;10.57;;;;;;;5.83;100.00;102501.19;1048147;28;20696;-48
2024/01/30 00:50:37;;;;;;;13.02;9.52;;;;;;;5.81;100.00;102505.78;1048059;28;20297;-48
2024/01/30 00:51:09;;;;;;;12.90;9.65;;;;;;;5.77;100.00;102501.75;1047971;28;20694;-47
2024/01/30 00:51:43;;;;;;;16.40;9.52;;;;;;;5.82;100.00;102503.97;1047619;28;20306;-47
2024/01/30 00:52:15;;;;;;;17.85;10.02;;;;;;;5.75;100.00;102501.06;1043201;28;20299;-46
2024/01/30 00:52:47;;;;;;;13.50;10.07;;;;;;;5.74;100.00;102498.53;1043281;28;20303;-46
2024/01/30 00:53:19;;;;;;;11.80;9.50;;;;;;;5.69;100.00;102504.25;1043387;28;20785;-45
2024/01/30 00:53:50;;;;;;;12.52;9.13;;;;;;;5.67;100.00;102510.66;1043999;28;20371;-48
2024/01/30 00:54:22;;;;;;;14.23;10.30;;;;;;;5.74;100.00;102507.31;1048282;28;20412;-46
2024/01/30 00:54:54;;;;;;;11.85;10.25;;;;;;;5.63;100.00;102510.13;1047906;28;20657;-48
2024/01/30 00:55:25;;;;;;;12.88;9.65;;;;;;;5.66;100.00;102504.56;1043234;28;20303;-46
2024/01/30 00:55:57;;;;;;;14.52;10.38;;;;;;;5.67;100.00;102511.50;1043168;28;20311;-47
2024/01/30 00:56:29;;;;;;;15.57;10.23;;;;;;;5.59;100.00;102503.47;1043236;28;20396;-47
2024/01/30 00:57:01;;;;;;;13.38;9.32;;;;;;;5.58;100.00;102517.66;1043818;28;20311;-47
2024/01/30 00:57:32;;;;;;;12.43;10.15;;;;;;;5.56;100.00;102509.03;1047852;28;20369;-47
2024/01/30 00:58:04;;;;;;;16.70;10.30;;;;;;;5.53;100.00;102510.16;1048237;28;20291;-48
2024/01/30 00:58:36;;;;;;;14.25;9.77;;;;;;;5.47;100.00;102509.88;1048021;28;20302;-49
2024/01/30 00:59:08;;;;;;;11.05;9.20;;;;;;;5.29;100.00;102512.41;1045608;28;20297;-48
2024/01/30 00:59:39;;;;;;;12.13;9.77;;;;;;;5.26;100.00;102504.78;1046608;28;20351;-48
2024/01/30 01:00:12;;;;;;;10.45;8.65;;;;;;;5.25;100.00;102511.88;1046303;28;20317;-48
2024/01/30 01:00:44;;;;;;;14.77;10.20;;;;;;;5.47;100.00;102494.84;1047792;28;20498;-47
2024/01/30 01:01:16;;;;;;;11.73;9.02;;;;;;;5.43;100.00;102503.19;1047542;28;20309;-48
2024/01/30 01:01:47;;;;;;;11.88;9.10;;;;;;;5.40;100.00;102508.78;1046317;28;20346;-50
2024/01/30 01:02:19;;;;;;;14.85;9.68;;;;;;;5.39;100.00;102504.47;1047877;28;20310;-47
2024/01/30 01:02:51;;;;;;;11.68;10.00;;;;;;;5.39;100.00;102501.81;1047694;28;20306;-50
2024/01/30 01:03:23;;;;;;;16.45;9.45;;;;;;;5.37;100.00;102504.59;1047760;28;20333;-50
2024/01/30 01:03:55;;;;;;;12.10;10.05;;;;;;;5.41;100.00;102510.44;1047282;28;20301;-47
2024/01/30 01:04:27;;;;;;;11.13;9.30;;;;;;;5.40;100.00;102500.84;1048019;28;20306;-48
2024/01/30 01:04:58;;;;;;;10.57;9.27;;;;;;;5.36;100.00;102510.88;1047672;28;21020;-47
2024/01/30 01:05:30;;;;;;;13.63;9.63;;;;;;;5.26;100.00;102497.69;1043278;28;20311;-45
2024/01/30 01:06:02;;;;;;;13.23;9.98;;;;;;;5.31;100.00;102504.34;1041459;28;20772;-46
2024/01/30 01:06:34;;;;;;;11.50;10.02;;;;;;;5.34;100.00;102506.69;1043236;28;20689;-46
2024/01/30 01:07:05;;;;;;;10.48;9.40;;;;;;;5.35;100.00;102503.09;1043480;28;20808;-48
2024/01/30 01:07:37;;;;;;;19.13;11.77;;;;;;;5.41;100.00;102500.69;1047832;28;20755;-48
2024/01/30 01:08:09;;;;;;;17.38;10.30;;;;;;;5.37;100.00;102498.50;1047732;28;20634;-47
2024/01/30 01:08:41;;;;;;;17.38;9.75;;;;;;;5.38;100.00;102505.44;1043050;28;20486;-48
2024/01/30 01:09:13;;;;;;;13.90;10.38;;;;;;;5.52;100.00;102499.72;1042838;28;20291;-49
2024/01/30 01:09:45;;;;;;;14.48;10.18;;;;;;;5.46;100.00;102497.63;1043671;28;20733;-47
2024/01/30 01:10:17;;;;;;;12.20;10.90;;;;;;;5.40;100.00;102500.84;1043940;28;20303;-48
2024/01/30 01:10:49;;;;;;;13.23;10.38;;;;;;;5.39;100.00;102499.19;1047626;28;20381;-48
2024/01/30 01:11:21;;;;;;;15.40;10.13;;;;;;;5.34;100.00;102506.69;1047729;28;20302;-47
2024/01/30 01:11:55;;;;;;;12.10;10.02;;;;;;;5.33;100.00;102497.94;1047674;28;20373;-48
2024/01/30 01:12:27;;;;;;;17.00;10.05;;;;;;;5.40;100.00;102498.19;1047802;28;20355;-49
2024/01/30 01:12:59;;;;;;;13.32;9.90;;;;;;;5.36;100.00;102502.94;1047769;28;20745;-47
2024/01/30 01:13:30;;;;;;;13.15;10.43;;;;;;;5.32;100.00;102504.19;1047779;28;20306;-48
2024/01/30 01:14:02;;;;;;;11.20;9.32;;;;;;;5.28;100.00;102500.19;1048052;28;20305;-48
2024/01/30 01:14:34;;;;;;;11.60;9.88;;;;;;;5.32;100.00;102498.09;1046138;28;20350;-48
2024/01/30 01:15:09;;;;;;;14.80;10.05;;;;;;;5.33;100.00;102497.94;1047808;28;20641;-48
2024/01/30 01:15:41;;;;;;;13.20;10.68;;;;;;;5.32;100.00;102500.72;1047293;28;20390;-49
2024/01/30 01:16:13;;;;;;;17.58;10.95;;;;;;;5.37;100.00;102498.50;1047836;28;20298;-47
2024/01/30 01:16:45;;;;;;;11.45;9.77;;;;;;;5.31;100.00;102504.34;1047804;28;20686;-48
2024/01/30 01:17:18;;;;;;;20.40;11.15;;;;;;;5.26;100.00;102497.69;1047463;28;20882;-50
2024/01/30 01:17:50;;;;;;;14.00;10.50;;;;;;;5.27;100.00;102504.63;1047534;28;20676;-48
2024/01/30 01:18:21;;;;;;;11.05;9.93;;;;;;;5.19;100.00;102507.13;1047299;28;20695;-48
2024/01/30 01:18:53;;;;;;;12.75;9.07;;;;;;;5.19;100.00;102496.56;1048152;28;20837;-47
2024/01/30 01:19:25;;;;;;;10.13;9.05;;;;;;;5.13;100.00;102501.56;1047686;28;20306;-48
2024/01/30 01:19:57;;;;;;;12.60;9.18;;;;;;;5.05;100.00;102501.44;1047769;28;20656;-48
2024/01/30 01:20:29;;;;;;;10.63;9.18;;;;;;;5.13;100.00;102506.84;1047473;28;20306;-45
2024/01/30 01:21:00;;;;;;;12.02;10.20;;;;;;;5.11;100.00;102508.78;1047650;28;20699;-49
2024/01/30 01:21:32;;;;;;;17.65;9.43;;;;;;;5.03;100.00;102514.78;1047732;28;20395;-47
2024/01/30 01:22:04;;;;;;;15.02;9.65;;;;;;;4.98;100.00;102506.44;1047765;28;20907;-49
2024/01/30 01:22:38;;;;;;;13.05;10.05;;;;;;;5.08;100.00;102509.91;1048003;28;20293;-48
2024/01/30 01:23:10;;;;;;;9.57;8.45;;;;;;;5.02;100.00;102513.13;1043892;28;20750;-48
2024/01/30 01:23:42;;;;;;;11.52;8.38;;;;;;;4.92;100.00;102509.63;1042749;28;20386;-47
2024/01/30 01:24:14;;;;;;;13.48;10.10;;;;;;;4.92;100.00;102509.63;1042857;28;20342;-48
2024/01/30 01:24:45;;;;;;;13.55;10.02;;;;;;;4.93;100.00;102511.28;1043860;28;20304;-48
2024/01/30 01:25:17;;;;;;;11.30;9.88;;;;;;;4.90;100.00;102511.56;1047738;28;20293;-47
2024/01/30 01:25:49;;;;;;;16.05;9.55;;;;;;;4.94;100.00;102512.97;1047143;28;20688;-49
2024/01/30 01:26:21;;;;;;;13.60;10.75;;;;;;;4.91;100.00;102513.22;1047717;28;20294;-47
2024/01/30 01:26:53;;;;;;;10.68;9.57;;;;;;;4.90;100.00;102508.91;1048083;28;20299;-49
2024/01/30 01:27:25;;;;;;;14.43;10.10;;;;;;;4.86;100.00;102516.28;1045818;28;20373;-49
2024/01/30 01:27:57;;;;;;;13.90;9.82;;;;;;;4.88;100.00;102521.44;1047695;28;20451;-47
2024/01/30 01:28:28;;;;;;;12.75;9.60;;;;;;;4.84;100.00;102517.41;1047741;28;20642;-48
2024/01/30 01:29:00;;;;;;;11.95;9.10;;;;;;;4.88;100.00;102524.06;1047618;28;20650;-48
2024/01/30 01:29:32;;;;;;;13.38;10.05;;;;;;;4.78;100.00;102521.44;1047485;28;20294;-48
2024/01/30 01:30:05;;;;;;;14.18;9.52;;;;;;;4.71;100.00;102516.84;1047636;28;20748;-47
2024/01/30 01:30:37;;;;;;;13.73;10.48;;;;;;;4.76;100.00;102519.91;1042453;28;20326;-48
2024/01/30 01:31:09;;;;;;;13.90;9.40;;;;;;;4.86;100.00;102518.94;1044020;28;20384;-49
2024/01/30 01:31:43;;;;;;;12.68;10.30;;;;;;;4.83;100.00;102516.56;1043685;28;20781;-47
2024/01/30 01:32:16;;;;;;;14.70;10.43;;;;;;;4.76;100.00;102509.34;1040153;28;20320;-48
2024/01/30 01:32:54;;;;;;;11.40;9.57;;;;;;;4.63;100.00;102513.06;1043155;28;20768;-48
2024/01/30 01:33:27;;;;;;;16.67;11.10;;;;;;;4.72;100.00;102516.69;1043462;28;20294;-46
2024/01/30 01:33:59;;;;;;;11.98;9.45;;;;;;;4.82;100.00;102514.06;1045439;28;20670;-45
2024/01/30 01:34:30;;;;;;;13.73;10.57;;;;;;;4.80;100.00;102516.84;1045421;28;20756;-46
2024/01/30 01:35:05;;;;;;;13.80;11.30;;;;;;;4.91;100.00;102518.50;1047278;28;20295;-47
2024/01/30 01:35:37;;;;;;;13.48;10.25;;;;;;;4.85;100.00;102508.50;1047194;28;20295;-45
2024/01/30 01:36:09;;;;;;;12.15;9.77;;;;;;;4.82;100.00;102514.06;1047639;28;20387;-45
2024/01/30 01:36:40;;;;;;;17.77;10.93;;;;;;;4.81;100.00;102509.75;1047623;28;20685;-46
2024/01/30 01:37:12;;;;;;;14.77;11.63;;;;;;;4.77;100.00;102509.19;1047409;28;20338;-46
2024/01/30 01:37:44;;;;;;;15.80;10.27;;;;;;;4.75;100.00;102510.31;1047750;28;20290;-49
2024/01/30 01:38:15;;;;;;;12.60;10.38;;;;;;;4.70;100.00;102509.91;1048266;28;20627;-47
2024/01/30 01:38:47;;;;;;;10.63;9.52;;;;;;;4.61;100.00;102507.09;1047947;28;20301;-46
2024/01/30 01:39:19;;;;;;;14.70;10.63;;;;;;;4.67;100.00;102507.53;1047295;28;20893;-45
2024/01/30 01:39:50;;;;;;;11.95;10.65;;;;;;;4.63;100.00;102509.59;1047706;28;20306;-46
2024/01/30 01:40:23;;;;;;;11.63;9.60;;;;;;;4.69;100.00;102506.41;1047669;28;20703;-47
2024/01/30 01:40:54;;;;;;;14.93;9.77;;;;;;;4.77;100.00;102505.72;1047486;28;20918;-48
2024/01/30 01:41:31;;;;;;;14.02;10.40;;;;;;;4.88;100.00;102502.94;1047637;28;20867;-48
2024/01/30 01:42:03;;;;;;;12.98;10.55;;;;;;;4.86;100.00;102504.91;1047481;28;20831;-48
2024/01/30 01:42:35;;;;;;;13.57;10.50;;;;;;;4.86;100.00;102505.72;1047605;28;20731;-48
2024/01/30 01:43:07;;;;;;;13.32;11.18;;;;;;;4.86;100.00;102504.91;1047979;28;20287;-48
2024/01/30 01:43:39;;;;;;;17.98;9.85;;;;;;;4.87;100.00;102511.84;1048027;28;20683;-48
2024/01/30 01:44:10;;;;;;;15.15;10.23;;;;;;;4.76;100.00;102509.34;1046986;28;20295;-46
2024/01/30 01:44:42;;;;;;;12.82;10.57;;;;;;;4.73;100.00;102504.34;1047553;28;20672;-48
2024/01/30 01:45:14;;;;;;;10.85;9.55;;;;;;;4.77;100.00;102500.44;1047545;28;20299;-49
2024/01/30 01:45:46;;;;;;;14.20;9.88;;;;;;;4.73;100.00;102505.16;1047245;28;20730;-49
2024/01/30 01:46:18;;;;;;;16.90;10.25;;;;;;;4.68;100.00;102501.28;1043221;28;20393;-49
2024/01/30 01:46:51;;;;;;;12.18;10.43;;;;;;;4.64;100.00;102501.53;1043334;28;20389;-49
2024/01/30 01:47:22;;;;;;;14.88;10.80;;;;;;;4.57;100.00;102500.41;1039321;28;20764;-47
2024/01/30 01:47:54;;;;;;;12.63;9.75;;;;;;;4.53;100.00;102499.03;1039810;28;20792;-46
2024/01/30 01:48:26;;;;;;;14.02;11.00;;;;;;;4.58;100.00;102502.06;1043263;28;20377;-48
2024/01/30 01:48:58;;;;;;;17.10;11.25;;;;;;;4.57;100.00;102504.84;1043052;28;20414;-49
2024/01/30 01:49:30;;;;;;;12.05;9.68;;;;;;;4.58;100.00;102506.53;1038268;28;20395;-47
2024/01/30 01:50:03;;;;;;;12.95;10.30;;;;;;;4.43;100.00;102498.19;1036894;28;20301;-49
2024/01/30 01:50:35;;;;;;;11.88;9.93;;;;;;;4.29;100.00;102496.72;1039192;28;20516;-47
2024/01/30 01:51:08;;;;;;;15.68;10.13;;;;;;;4.35;100.00;102495.34;1043856;28;20782;-48
2024/01/30 01:51:41;;;;;;;13.98;10.13;;;;;;;4.26;100.00;102496.16;1047622;28;20598;-49
2024/01/30 01:52:13;;;;;;;11.73;10.52;;;;;;;4.22;100.00;102505.31;1043400;28;20646;-46
2024/01/30 01:52:48;;;;;;;12.98;9.50;;;;;;;4.17;100.00;102497.81;1043521;28;20295;-47
2024/01/30 01:53:20;;;;;;;13.38;10.70;;;;;;;4.08;100.00;102498.59;1043475;28;20669;-48
2024/01/30 01:53:52;;;;;;;12.68;10.23;;;;;;;4.15;100.00;102498.91;1044252;28;20804;-46
2024/01/30 01:54:25;;;;;;;11.93;9.48;;;;;;;4.10;100.00;102495.81;1043047;28;20386;-47
2024/01/30 01:54:57;;;;;;;17.10;9.80;;;;;;;4.11;100.00;102497.50;1039028;28;20808;-46
2024/01/30 01:55:29;;;;;;;11.50;10.23;;;;;;;4.06;100.00;102504.97;1038899;28;20351;-46
2024/01/30 01:56:01;;;;;;;11.15;9.68;;;;;;;4.01;100.00;102500.94;1038339;28;20793;-46
2024/01/30 01:56:34;;;;;;;12.82;10.55;;;;;;;4.01;100.00;102500.09;1039651;28;20296;-45
2024/01/30 01:57:05;;;;;;;11.52;9.65;;;;;;;4.05;100.00;102501.50;1043233;28;20378;-49
2024/01/30 01:57:37;;;;;;;13.85;10.02;;;;;;;4.09;100.00;102500.25;1044344;28;20294;-46
2024/01/30 01:58:09;;;;;;;11.73;9.68;;;;;;;4.15;100.00;102499.75;1047193;28;20302;-48
2024/01/30 01:58:41;;;;;;;12.18;10.88;;;;;;;4.13;100.00;102496.41;1047555;28;20736;-49
2024/01/30 01:59:13;;;;;;;13.70;10.18;;;;;;;4.14;100.00;102500.72;1047668;28;20709;-48
2024/01/30 01:59:45;;;;;;;18.88;11.00;;;;;;;4.09;100.00;102497.63;1042910;28;20394;-50
2024/01/30 02:00:17;;;;;;;12.68;9.55;;;;;;;4.11;100.00;102500.13;1042984;28;20303;-48
2024/01/30 02:00:49;;;;;;;11.98;10.05;;;;;;;4.04;100.00;102503.31;1039116;28;20299;-48
2024/01/30 02:01:23;;;;;;;10.82;9.25;;;;;;;4.13;100.00;102495.59;1039001;28;20345;-48
2024/01/30 02:01:55;;;;;;;14.18;11.10;;;;;;;4.24;100.00;102498.09;1036903;28;20747;-47
2024/01/30 02:02:30;;;;;;;12.95;9.82;;;;;;;4.10;100.00;102495.81;1039973;28;20291;-48
2024/01/30 02:03:02;;;;;;;10.88;9.73;;;;;;;4.18;100.00;102493.38;1043377;28;20640;-48
2024/01/30 02:03:34;;;;;;;12.82;10.48;;;;;;;4.27;100.00;102489.94;1044525;28;20406;-48
2024/01/30 02:04:07;;;;;;;14.57;11.55;;;;;;;4.21;100.00;102503.66;1042550;28;20353;-45
2024/01/30 02:04:39;;;;;;;12.50;10.00;;;;;;;4.13;100.00;102492.94;1042990;28;20295;-46
2024/01/30 02:05:11;;;;;;;12.95;9.68;;;;;;;4.16;100.00;102500.59;1043022;28;20303;-49
2024/01/30 02:05:43;;;;;;;11.90;10.30;;;;;;;4.08;100.00;102493.31;1043742;28;20702;-46
2024/01/30 02:06:15;;;;;;;15.57;9.52;;;;;;;4.13;100.00;102491.16;1047370;28;20393;-47
2024/01/30 02:06:46;;;;;;;13.52;10.80;;;;;;;4.09;100.00;102495.00;1042821;28;20893;-49
2024/01/30 02:07:18;;;;;;;14.82;10.50;;;;;;;4.07;100.00;102499.56;1043302;28;20303;-47
2024/01/30 02:07:50;;;;;;;13.65;10.00;;;;;;;4.06;100.00;102489.97;1038688;28;20449;-48
2024/01/30 02:08:23;;;;;;;11.55;10.07;;;;;;;4.03;100.00;102496.34;1038896;28;20304;-48
2024/01/30 02:08:55;;;;;;;14.23;10.60;;;;;;;4.12;100.00;102488.63;1042644;28;20425;-49
2024/01/30 02:09:26;;;;;;;13.10;9.95;;;;;;;4.09;100.00;102502.91;1043539;28;20705;-47
2024/01/30 02:09:58;;;;;;;11.00;9.05;;;;;;;4.11;100.00;102492.22;1047189;28;20763;-46
2024/01/30 02:10:30;;;;;;;10.93;9.23;;;;;;;4.03;100.00;102496.34;1047251;28;20305;-47
2024/01/30 02:11:02;;;;;;;13.60;11.20;;;;;;;4.08;100.00;102495.97;1047814;28;20653;-47
2024/01/30 02:11:34;;;;;;;12.10;10.88;;;;;;;4.07;100.00;102490.81;1042819;28;20307;-46
2024/01/30 02:12:06;;;;;;;13.93;10.82;;;;;;;4.10;100.00;102491.38;1038398;28;20816;-48
2024/01/30 02:12:38;;;;;;;13.57;11.05;;;;;;;4.12;100.00;102488.63;1038707;28;20304;-46
2024/01/30 02:13:10;;;;;;;11.00;9.05;;;;;;;4.14;100.00;102491.97;1038373;28;20817;-46
2024/01/30 02:13:41;;;;;;;11.80;9.45;;;;;;;4.10;100.00;102480.84;1039628;28;20304;-47
2024/01/30 02:14:13;;;;;;;13.73;9.57;;;;;;;4.13;100.00;102485.03;1047246;28;20421;-46
2024/01/30 02:14:46;;;;;;;11.52;10.32;;;;;;;4.18;100.00;102477.56;1047487;28;20298;-47
2024/01/30 02:15:18;;;;;;;15.75;10.20;;;;;;;4.17;100.00;102483.78;1047637;28;20291;-46
2024/01/30 02:15:52;;;;;;;13.63;10.25;;;;;;;4.15;100.00;102480.47;1047102;28;20302;-47
2024/01/30 02:16:24;;;;;;;13.48;10.27;;;;;;;4.16;100.00;102477.69;1045070;28;20299;-47
2024/01/30 02:16:55;;;;;;;12.27;10.50;;;;;;;4.17;100.00;102476.72;1047103;28;20359;-45
2024/01/30 02:17:27;;;;;;;15.00;9.65;;;;;;;4.28;100.00;102483.69;1046962;28;20380;-46
2024/01/30 02:17:59;;;;;;;11.65;10.45;;;;;;;4.26;100.00;102482.97;1047146;28;20306;-48
2024/01/30 02:18:30;;;;;;;12.02;10.63;;;;;;;4.26;100.00;102480.34;1046798;28;20571;-46
2024/01/30 02:19:02;;;;;;;13.80;10.70;;;;;;;4.22;100.00;102484.22;1042725;28;20400;-47
2024/01/30 02:19:34;;;;;;;13.48;10.93;;;;;;;4.20;100.00;102471.16;1043216;28;20318;-45
2024/01/30 02:20:06;;;;;;;12.32;11.02;;;;;;;4.23;100.00;102480.63;1042085;28;20299;-47
2024/01/30 02:20:38;;;;;;;15.13;10.90;;;;;;;4.30;100.00;102471.19;1043068;28;20643;-46
2024/01/30 02:21:10;;;;;;;15.50;11.35;;;;;;;4.28;100.00;102475.78;1042738;28;20378;-46
2024/01/30 02:21:42;;;;;;;15.70;11.65;;;;;;;4.28;100.00;102479.25;1042708;28;20360;-46
2024/01/30 02:22:13;;;;;;;12.60;10.40;;;;;;;4.34;100.00;102472.59;1038826;28;20311;-48
2024/01/30 02:22:46;;;;;;;15.15;10.85;;;;;;;4.41;100.00;102473.72;1033282;28;20303;-46
2024/01/30 02:23:19;;;;;;;11.40;10.05;;;;;;;4.29;100.00;102469.53;1035053;28;20371;-47
2024/01/30 02:23:52;;;;;;;12.88;11.00;;;;;;;4.31;100.00;102476.31;1036121;28;20289;-46
2024/01/30 02:24:24;;;;;;;15.38;11.20;;;;;;;4.41;100.00;102475.53;1036300;28;20293;-46
2024/01/30 02:24:56;;;;;;;14.57;10.90;;;;;;;4.50;100.00;102475.53;1039614;28;20308;-46
2024/01/30 02:25:38;;;;;;;12.23;10.93;;;;;;;4.51;100.00;102474.56;1043071;28;20697;-46
2024/01/30 02:26:11;;;;;;;15.50;11.45;;;;;;;4.48;100.00;102469.56;1042805;28;20826;-48
2024/01/30 02:26:43;;;;;;;12.68;11.30;;;;;;;4.47;100.00;102470.53;1043301;28;20657;-46